Menahga, MN

2:07 PM CDT on September 16, 2014 (GMT -0500)
Wadena Municipal | Change Station
CLOSE
Current Station
Airport
Location: Wadena,
Elevation: 1371 ft
Nearby Weather Stations

Elev 1371 ft 46.45 °N, 95.21 °W | Updated 28 minutes ago

Clear
Clear
66 °F
Feels Like 66 °F
N
8
Wind Variable Wind from SSW

Today
High -- | Low -- °F
--% Chance of Precip.
Yesterday
High -- | Low -- °F
Precip. -- in
6:59 AM 7:29 PM
Last Quarter, 43% visible
Pressure 30.06 in
Visibility 10.0 miles
Clouds Clear
Dew Point 39 °F
Humidity 37%
Rainfall 0.00 in
Snow Depth Not available.
UV 7 out of 12
Pollen 3.40 out of 12
Air Quality Not available.
Flu Activity Not available.
METAR KADC 161839Z AUTO 21007KT 10SM CLR 19/04 A3006 RMK AO2

More Conditions Fewer Conditions

Pressure 30.06 in
Visibility 10.0 miles
Clouds Clear
Dew Point 39 °F
Humidity 37%
Rainfall 0.00 in
Snow Depth Not available.
UV 7 out of 12
Pollen 3.40 out of 12
Air Quality Not available.
Flu Activity Not available.
METAR KADC 161839Z AUTO 21007KT 10SM CLR 19/04 A3006 RMK AO2

More Conditions Fewer Conditions

10-Day Weather Forecast

Almanac

Astronomy

Sep. 16, 2014 Rise Set
Actual Time 6:59 AM CDT 7:29 PM CDT
Civil Twilight 6:28 AM CDT 7:59 PM CDT
Nautical Twilight 5:52 AM CDT 8:35 PM CDT
Astronomical Twilight 5:14 AM CDT 9:13 PM CDT
Moon No Moon Rise 3:09 PM CDT
Length of Visible Light 13h 31m
Length of Day
12h 30m
Tomorrow will be 3m 19s shorter.
Last Quarter, 43% of the Moon is Illuminated
Today
Last Quarter
Sep 24
New
Oct 1
First Quarter
Oct 8
Full
Oct 15
Last Quarter

Today's Extremes

State Highs State Lows

Community

WunderPhotos

Upload Photos

1,753,860 photos uploaded!

WunderBlogs® & News

Nearby

Snow Depth

Station Depth Elevation
No new snow has been reported.

Earthquake Activity

City Distance Mag. Time & Date
No recent earthquake activity has been reported nearby.
Minimum magnitude displayed is 2.5.

Coastal Water Temperatures

Place Temperature
No Stations Reporting

Nearby Weather Stations